Station info - map view · info · telemetry · weather · raw · status · beacons · messages · bulletins · browse · moving · my account
Callsign, ship name or locator: Clear       
It is possible to search using wildcards (*?) after a prefix. Example: OH*
APRS station VK2ASY-9 - show graphs
Map loading...
Comment: 439.150MHz
Mic-E message: In service
Location: 33°16.72' S 149°07.58' E - locator QF46NR53DC - show map - static map
1.6 miles East bearing 76° from Orange, Orange Municipality, New South Wales, Australia [?]
12.0 miles North bearing 344° from Millthorpe, Blayney, New South Wales, Australia
27.9 miles West bearing 290° from Bathurst, Bathurst Regional, New South Wales, Australia
Last position: 2017-09-26 06:01:34 EDT (1h2m ago)
2017-09-26 20:01:34 AEST local time at Orange, Australia [?]
Altitude: 2858 ft
Course: 204°
Speed: 5 MPH
Device: Kenwood: TM-D710 (rig)
Last path: VK2ASY-9>S3Q6W2 via WIDE1-1,WIDE2-1,qAR,VK2ASY-1 (good)
Positions stored: 401802
Packet rate: 154 seconds between packets on average during 6943 seconds.
Other SSIDs: VK2ASY VK2ASY-1 VK2ASY-10 VK2ASY-11 VK2ASY-15 VK2ASY-20 VK2ASY-3 VK2ASY-6 VK2ASY-8
Stations near current position of VK2ASY-9 - show more
callsign distance last heard - EDT      callsign distance last heard - EDT
VK2RCW B330.9 yards 256°2017-09-26 06:56:37 VK2RCW-B330.9 yards 256°2017-09-26 06:56:47
VK2ACW-10.4 miles 333°2017-09-26 06:42:43 QRUVK2ASY0.4 miles 332°2017-09-26 06:58:15
VK2ASY0.5 miles 341°2017-09-26 06:58:15 VK2ASY-101.0 miles 294°2017-09-26 06:40:30
VK2ASY-31.0 miles 294°2017-09-24 01:21:56 VK2ASY-61.0 miles 294°2017-09-23 22:48:26
VK2HVA-91.2 miles 245°2017-09-13 22:48:41 VK2BLO-WX1.7 miles 218°2017-09-26 06:57:28
VK2BLO-61.7 miles 190°2017-09-06 20:20:38 VK2BLO-132.0 miles 194°2017-09-08 05:07:42
VK2BLO-92.0 miles 197°2017-09-26 01:57:43 VK2BLO-52.0 miles 196°2017-09-02 18:32:40
VK2BLO-EL2.0 miles 197°2017-09-15 00:36:44 VK2BLO-12.4 miles 201°2017-09-26 07:03:23
VK2ZRJ2.4 miles 244°2017-09-11 03:55:22 VK2XLJ-82.5 miles 225°2017-09-26 03:32:35
VK2XLJ-92.5 miles 224°2017-09-26 05:05:30 CW84969.0 miles 250°2017-09-26 07:01:16
Stations which heard VK2ASY-9 directly on radio –
callsign pkts first heard - EDT last heard longest (tx => rx) longest at - EDT
VK2RAG-1 4 2017-09-01 19:44:55 2017-09-02 02:15:33 QF56DH > QF56PP 62.0 miles 70° 2017-09-01 19:44:55
VK2ASY-1 1953 2017-09-01 02:24:29 2017-09-26 06:01:04 QF47XN > QF46NR 73.6 miles 220° 2017-09-09 22:24:20
VK2RAO-1 62 2017-09-01 05:31:54 2017-09-26 04:11:48 QF46NQ > QF46LP 8.6 miles 247° 2017-09-03 06:38:33
VK2MB-1 21 2017-09-01 19:42:00 2017-09-02 02:39:00 QF56DI > QF56OH 54.3 miles 95° 2017-09-02 02:39:00
VK2RYL-1 1 2017-09-02 03:15:05 2017-09-02 03:15:05 QF46XN > QF57AH 52.4 miles 2° 2017-09-02 03:15:05
VK2JDS-1 199 2017-09-01 05:29:32 2017-09-26 01:16:34 QF46VN > QF46PU 34.2 miles 311° 2017-09-02 03:29:22
VK2BN-1 57 2017-09-01 20:00:23 2017-09-02 02:16:02 QF56ME > QF56HH 25.2 miles 287° 2017-09-02 01:04:12
VK2RHR-1 55 2017-09-01 18:34:20 2017-09-02 03:06:44 QF56BN > QF55EP 66.1 miles 169° 2017-09-02 03:06:44
VK2NR-5 3 2017-09-01 20:55:22 2017-09-02 01:22:28 QF56ME > QF56KB 13.6 miles 230° 2017-09-02 01:06:42
VK2LJ-1 1 2017-09-01 19:59:32 2017-09-01 19:59:32 QF56EG > QF56OC 49.0 miles 104° 2017-09-01 19:59:32
VK2VEL 5 2017-09-02 01:40:32 2017-09-02 02:36:16 QF56DI > QF56MB 47.4 miles 117° 2017-09-02 02:36:16
VK2KMI-1 3 2017-09-01 22:53:10 2017-09-02 01:11:46 QF56LE > QF56ME 4.8 miles 88° 2017-09-02 01:11:46
VK2HFF-5 2 2017-09-01 20:03:05 2017-09-01 20:12:41 QF56EG > QF55IX 29.1 miles 137° 2017-09-01 20:03:05
VK2BV-4 2 2017-09-01 20:15:22 2017-09-02 02:00:38 QF56FG > QF56PD 45.3 miles 104° 2017-09-02 02:00:38
VK2AMW-1 8 2017-09-01 20:54:39 2017-09-02 02:19:49 QF56DG > QF55HK 61.0 miles 163° 2017-09-02 02:19:49
VK2FEB-2 21 2017-09-01 20:01:10 2017-09-02 02:12:06 QF56EG > QF56JA 28.5 miles 126° 2017-09-01 20:01:10
VK2GJ-10 1 2017-09-01 22:55:12 2017-09-01 22:55:12 QF56ME > QF56NG 6.9 miles 37° 2017-09-01 22:55:12

Only position packets which were originated by the station are shown here. The range statistics show some extra long hops, because some digipeaters do not correctly add themselves to the digipeater path. Please check the raw packets.
About this site
This page shows real-time information collected from the Automatic Position Reporting System Internet network (APRS-IS). APRS is used by amateur (ham) radio operators to transmit real-time position information, weather data, telemetry and messages over the radio. A vehicle equipped with a GPS receiver, a VHF transmitter or HF transceiver and a small computer device called a tracker transmits it's location, speed and course in a small data packet, which is then received by a nearby iGate receiving site which forwards the packet on the Internet. Systems connected to the Internet can send information on the APRS-IS without a radio transmitter, or collect and display information transmitted anywhere in the world.
FAQ · Blog · Discussion group · Linking to aprs.fi · AIS sites · Service status · Database statistics · Advertising on aprs.fi · Technical details · API · Change log · Planned changes · Credits and thanks · Terms Of Service · iPhone/iPad APRS